Time;durP1;ratioP1;P1;durP2;ratioP2;P2;SDS_P1;SDS_P2;PMS_P1;PMS_P2;Temp;Humidity;BMP_temperature;BMP_pressure;BME280_temperature;BME280_humidity;BME280_pressure;Samples;Min_cycle;Max_cycle;Signal;HPM_P1;HPM_P2
2023/12/10 00:00:56;;;;;;;2.40;1.00;;;15.00;57.60;;;;;;7403144;19;20344;-72
2023/12/10 00:03:21;;;;;;;3.28;1.10;;;15.10;57.20;;;;;;7389831;19;20327;-72
2023/12/10 00:05:47;;;;;;;5.57;1.20;;;15.10;56.00;;;;;;7394078;19;19922;-71
2023/12/10 00:08:13;;;;;;;3.83;1.17;;;15.10;55.90;;;;;;7391942;19;20340;-72
2023/12/10 00:10:39;;;;;;;3.30;1.35;;;15.10;55.80;;;;;;7391071;19;20267;-72
2023/12/10 00:13:05;;;;;;;4.03;1.70;;;15.10;55.20;;;;;;7397085;19;19917;-71
2023/12/10 00:15:31;;;;;;;4.43;1.50;;;15.20;54.10;;;;;;7397085;19;19914;-72
2023/12/10 00:17:57;;;;;;;4.30;1.45;;;15.30;53.80;;;;;;7391230;19;20675;-72
2023/12/10 00:20:25;;;;;;;4.03;1.30;;;15.20;52.70;;;;;;7388462;19;19934;-73
2023/12/10 00:22:51;;;;;;;5.32;1.30;;;15.20;53.30;;;;;;7396517;19;19947;-72
2023/12/10 00:25:16;;;;;;;2.60;0.98;;;15.30;52.70;;;;;;7391949;19;19930;-73
2023/12/10 00:27:42;;;;;;;3.15;1.20;;;15.50;51.70;;;;;;7399069;19;19923;-73
2023/12/10 00:30:09;;;;;;;3.80;1.15;;;15.50;50.60;;;;;;7398404;19;20323;-73
2023/12/10 00:32:34;;;;;;;2.65;1.10;;;15.50;50.10;;;;;;7399834;19;20348;-71
2023/12/10 00:35:00;;;;;;;4.25;1.27;;;15.50;50.20;;;;;;7403149;19;19917;-72
2023/12/10 00:37:26;;;;;;;3.28;1.55;;;15.50;50.20;;;;;;7397178;19;19926;-72
2023/12/10 00:39:52;;;;;;;3.35;1.00;;;15.50;50.50;;;;;;7401384;19;20311;-73
2023/12/10 00:42:18;;;;;;;3.05;1.20;;;15.70;48.10;;;;;;7398168;19;19918;-74
2023/12/10 00:44:45;;;;;;;2.80;1.17;;;15.60;48.70;;;;;;7386667;19;19929;-72
2023/12/10 00:47:11;;;;;;;3.22;1.17;;;15.50;49.50;;;;;;7394530;19;19956;-73
2023/12/10 00:49:37;;;;;;;2.70;1.20;;;15.60;49.60;;;;;;7401348;19;19915;-72
2023/12/10 00:52:04;;;;;;;2.80;1.05;;;15.50;50.00;;;;;;7389096;19;20660;-73
2023/12/10 00:54:33;;;;;;;3.35;1.13;;;15.50;49.80;;;;;;7398457;19;19925;-74
2023/12/10 00:56:59;;;;;;;3.95;1.48;;;15.60;49.50;;;;;;7395912;19;20323;-72
2023/12/10 00:59:26;;;;;;;2.63;1.13;;;15.70;48.50;;;;;;7400193;19;19950;-72
2023/12/10 01:01:52;;;;;;;2.97;1.10;;;15.70;47.20;;;;;;7393566;19;19910;-72
2023/12/10 01:04:18;;;;;;;2.95;1.30;;;15.80;46.00;;;;;;7396257;19;19922;-72
2023/12/10 01:06:45;;;;;;;2.50;1.08;;;15.90;44.50;;;;;;7401020;19;19935;-72
2023/12/10 01:09:11;;;;;;;4.20;1.00;;;16.00;43.40;;;;;;7398916;19;19926;-72
2023/12/10 01:11:38;;;;;;;4.45;1.33;;;16.20;42.80;;;;;;7397184;19;19915;-73
2023/12/10 01:14:04;;;;;;;;;;;16.20;42.00;;;;;;7395585;19;19914;-72
2023/12/10 01:16:30;;;;;;;2.13;0.90;;;16.30;40.90;;;;;;7398460;19;19926;-71
2023/12/10 01:18:56;;;;;;;3.30;1.17;;;16.20;41.60;;;;;;7391077;19;19948;-72
2023/12/10 01:21:22;;;;;;;3.70;1.33;;;16.10;42.30;;;;;;7396399;19;19966;-72
2023/12/10 01:23:50;;;;;;;2.42;0.88;;;16.10;41.80;;;;;;7398645;19;19946;-72
2023/12/10 01:26:16;;;;;;;2.38;1.30;;;16.10;41.10;;;;;;7398422;19;19910;-72
2023/12/10 01:28:43;;;;;;;2.60;0.82;;;16.20;41.00;;;;;;7396481;19;19913;-73
2023/12/10 01:31:08;;;;;;;2.20;0.90;;;16.20;40.90;;;;;;7396871;19;19915;-73
2023/12/10 01:33:34;;;;;;;4.45;2.42;;;16.10;41.10;;;;;;7396477;19;20021;-72
2023/12/10 01:36:00;;;;;;;3.53;1.60;;;15.90;41.30;;;;;;7395282;19;19919;-72
2023/12/10 01:38:26;;;;;;;2.75;1.00;;;16.00;40.80;;;;;;7398011;19;19914;-72
2023/12/10 01:40:51;;;;;;;3.35;0.80;;;15.90;41.30;;;;;;7397099;19;19934;-73
2023/12/10 01:43:17;;;;;;;2.60;1.00;;;15.90;41.80;;;;;;7396019;19;19915;-72
2023/12/10 01:45:54;;;;;;;2.50;0.90;;;15.80;41.70;;;;;;7398947;19;19922;-72
2023/12/10 01:48:23;;;;;;;4.13;0.98;;;15.80;41.70;;;;;;7396336;19;19921;-72
2023/12/10 01:50:49;;;;;;;1.85;0.60;;;15.90;41.90;;;;;;7399397;19;20338;-72
2023/12/10 01:53:16;;;;;;;2.63;0.88;;;16.00;42.30;;;;;;7395069;19;20493;-72
2023/12/10 01:55:43;;;;;;;5.38;1.10;;;16.00;42.00;;;;;;7397709;19;19926;-72
2023/12/10 01:58:09;;;;;;;2.92;1.15;;;16.10;41.90;;;;;;7393731;19;19930;-72
2023/12/10 02:00:36;;;;;;;2.83;1.38;;;16.10;42.20;;;;;;7398443;19;19911;-72
2023/12/10 02:03:03;;;;;;;3.40;0.90;;;16.20;44.70;;;;;;7395235;19;19918;-72
2023/12/10 02:05:29;;;;;;;1.92;0.80;;;16.10;44.70;;;;;;7394320;19;19914;-72
2023/12/10 02:07:55;;;;;;;3.47;0.80;;;16.00;45.20;;;;;;7397227;19;19907;-71
2023/12/10 02:10:21;;;;;;;2.60;0.80;;;16.00;46.70;;;;;;7395993;19;20291;-71
2023/12/10 02:12:48;;;;;;;2.67;1.00;;;15.90;47.50;;;;;;7405531;19;19922;-72
2023/12/10 02:15:17;;;;;;;2.45;0.90;;;16.00;47.80;;;;;;7400881;19;19935;-72
2023/12/10 02:17:44;;;;;;;2.30;1.02;;;16.00;49.10;;;;;;7404878;19;20032;-72
2023/12/10 02:20:12;;;;;;;3.33;1.48;;;15.80;49.40;;;;;;7404120;19;19923;-72
2023/12/10 02:22:52;;;;;;;3.47;0.82;;;15.80;50.10;;;;;;7403221;19;19923;-72
2023/12/10 02:25:32;;;;;;;2.33;0.90;;;15.70;51.90;;;;;;7402232;19;19923;-72
2023/12/10 02:27:59;;;;;;;2.42;1.00;;;15.60;52.20;;;;;;7401659;19;19919;-72
2023/12/10 02:30:25;;;;;;;3.13;1.10;;;15.60;53.20;;;;;;7401649;19;19922;-71
2023/12/10 02:32:51;;;;;;;2.03;0.55;;;15.60;53.50;;;;;;7406648;19;19922;-71
2023/12/10 02:35:17;;;;;;;1.80;0.60;;;15.70;52.60;;;;;;7402624;19;20278;-72
2023/12/10 02:37:42;;;;;;;3.28;0.93;;;15.80;51.50;;;;;;7403001;19;19930;-71
2023/12/10 02:40:09;;;;;;;2.95;0.90;;;15.70;52.60;;;;;;7402125;19;19923;-71
2023/12/10 02:42:35;;;;;;;3.33;0.98;;;15.70;53.20;;;;;;7400487;19;19923;-72
2023/12/10 02:45:01;;;;;;;2.80;1.05;;;15.70;53.00;;;;;;7404863;19;19919;-72
2023/12/10 02:47:26;;;;;;;3.83;1.40;;;15.60;53.50;;;;;;7399940;19;19914;-71
2023/12/10 02:49:52;;;;;;;2.90;0.95;;;15.60;53.60;;;;;;7404293;19;20271;-72
2023/12/10 02:52:23;;;;;;;3.08;1.20;;;15.60;53.00;;;;;;7398054;19;20549;-71
2023/12/10 02:54:48;;;;;;;2.22;1.08;;;15.60;52.80;;;;;;7402296;19;19917;-71
2023/12/10 02:57:14;;;;;;;2.58;0.70;;;15.60;51.90;;;;;;7403013;19;19923;-71
2023/12/10 02:59:40;;;;;;;2.50;1.25;;;15.60;50.60;;;;;;7401505;19;19919;-71
2023/12/10 03:02:06;;;;;;;2.53;1.08;;;15.70;49.10;;;;;;7403103;19;19949;-72
2023/12/10 03:04:32;;;;;;;2.42;0.73;;;15.70;48.80;;;;;;7400031;19;20247;-71
2023/12/10 03:06:58;;;;;;;3.67;1.15;;;15.60;49.30;;;;;;7404029;19;19937;-72
2023/12/10 03:09:23;;;;;;;2.10;0.95;;;15.50;49.60;;;;;;7400584;19;19945;-72
2023/12/10 03:11:49;;;;;;;3.08;0.90;;;15.60;49.60;;;;;;7405028;19;19934;-72
2023/12/10 03:14:16;;;;;;;2.38;0.45;;;15.70;49.30;;;;;;7401698;19;20342;-72
2023/12/10 03:16:41;;;;;;;1.92;0.60;;;15.70;49.40;;;;;;7404048;19;20525;-72
2023/12/10 03:19:09;;;;;;;2.83;1.02;;;15.70;49.00;;;;;;7398854;19;19926;-72
2023/12/10 03:21:35;;;;;;;1.92;0.75;;;15.70;48.60;;;;;;7401658;19;19915;-73
2023/12/10 03:24:01;;;;;;;1.70;0.60;;;15.80;47.80;;;;;;7404701;19;20299;-71
2023/12/10 03:26:27;;;;;;;2.38;1.05;;;15.90;47.10;;;;;;7400225;19;19918;-72
2023/12/10 03:28:53;;;;;;;2.80;0.70;;;15.90;48.20;;;;;;7402495;19;19928;-72
2023/12/10 03:31:18;;;;;;;1.95;0.90;;;15.70;49.10;;;;;;7402518;19;19923;-71
2023/12/10 03:33:44;;;;;;;2.42;0.98;;;15.50;50.40;;;;;;7404414;19;19933;-72
2023/12/10 03:36:10;;;;;;;2.47;1.05;;;15.50;50.70;;;;;;7401504;19;19911;-72
2023/12/10 03:38:36;;;;;;;2.90;1.13;;;15.60;49.10;;;;;;7404457;19;19914;-72
2023/12/10 03:41:02;;;;;;;2.65;0.93;;;15.60;48.90;;;;;;7401399;19;19950;-71
2023/12/10 03:43:28;;;;;;;2.20;0.80;;;15.70;49.40;;;;;;7401727;19;19915;-71
2023/12/10 03:45:54;;;;;;;1.85;0.70;;;15.60;49.60;;;;;;7400306;19;20264;-71
2023/12/10 03:48:20;;;;;;;1.70;0.90;;;15.60;49.70;;;;;;7400840;19;19918;-72
2023/12/10 03:50:46;;;;;;;2.80;0.77;;;15.60;49.70;;;;;;7402254;19;19915;-71
2023/12/10 03:53:12;;;;;;;2.70;0.70;;;15.70;49.10;;;;;;7401613;19;20350;-72
2023/12/10 03:55:38;;;;;;;2.42;0.70;;;15.60;49.70;;;;;;7400601;19;20292;-71
2023/12/10 03:58:04;;;;;;;3.92;1.10;;;15.50;49.70;;;;;;7401892;19;20364;-72
2023/12/10 04:00:30;;;;;;;2.90;1.17;;;15.50;49.80;;;;;;7402637;19;19998;-72
2023/12/10 04:02:55;;;;;;;2.17;1.00;;;15.40;50.30;;;;;;7403404;19;20356;-72
2023/12/10 04:05:21;;;;;;;3.25;1.42;;;15.30;50.10;;;;;;7399314;19;19922;-71
2023/12/10 04:07:50;;;;;;;1.92;0.70;;;15.30;51.20;;;;;;7402563;19;20375;-72
2023/12/10 04:10:16;;;;;;;3.72;1.05;;;15.10;52.20;;;;;;7399707;19;19918;-72
2023/12/10 04:12:41;;;;;;;2.53;1.00;;;15.00;53.10;;;;;;7400620;19;19923;-72
2023/12/10 04:15:07;;;;;;;2.53;1.05;;;15.00;52.00;;;;;;7401609;19;19911;-72
2023/12/10 04:17:33;;;;;;;4.03;0.98;;;15.00;51.10;;;;;;7403690;19;20278;-72
2023/12/10 04:19:59;;;;;;;1.25;0.70;;;15.10;50.10;;;;;;7399778;19;19914;-72
2023/12/10 04:22:26;;;;;;;2.33;0.95;;;15.10;48.70;;;;;;7400513;19;19950;-72
2023/12/10 04:24:52;;;;;;;2.55;1.08;;;14.90;50.10;;;;;;7401507;19;19922;-72
2023/12/10 04:27:18;;;;;;;3.28;1.08;;;14.60;52.00;;;;;;7400384;19;20275;-72
2023/12/10 04:29:44;;;;;;;3.88;1.05;;;14.40;54.30;;;;;;7403280;19;19938;-71
2023/12/10 04:32:10;;;;;;;2.50;0.82;;;14.20;56.40;;;;;;7398884;19;19933;-71
2023/12/10 04:34:36;;;;;;;2.75;0.88;;;14.10;58.20;;;;;;7402493;19;19922;-72
2023/12/10 04:37:02;;;;;;;2.15;1.02;;;14.00;59.00;;;;;;7400680;19;19926;-72
2023/12/10 04:39:28;;;;;;;2.72;1.08;;;14.10;58.60;;;;;;7401692;19;20323;-72
2023/12/10 04:41:54;;;;;;;3.10;0.75;;;14.20;56.00;;;;;;7402491;19;19922;-71
2023/12/10 04:44:19;;;;;;;2.97;1.20;;;14.20;56.50;;;;;;7399945;19;19922;-71
2023/12/10 04:46:45;;;;;;;2.67;1.27;;;14.00;57.40;;;;;;7400638;19;19926;-71
2023/12/10 04:49:11;;;;;;;5.18;1.40;;;13.90;57.90;;;;;;7400214;19;19923;-71
2023/12/10 04:51:37;;;;;;;4.63;1.33;;;13.90;60.10;;;;;;7401396;19;19953;-71
2023/12/10 04:54:03;;;;;;;4.00;2.00;;;13.70;62.40;;;;;;7400772;19;19918;-70
2023/12/10 04:56:29;;;;;;;4.93;2.00;;;13.60;65.60;;;;;;7397306;19;19915;-71
2023/12/10 04:58:55;;;;;;;3.50;1.60;;;13.40;67.20;;;;;;7398051;19;19922;-70
2023/12/10 05:01:21;;;;;;;4.03;1.58;;;13.40;68.10;;;;;;7396494;19;20548;-71
2023/12/10 05:03:46;;;;;;;3.53;1.70;;;13.30;69.10;;;;;;7399430;19;19954;-70
2023/12/10 05:06:12;;;;;;;4.88;1.83;;;13.20;69.50;;;;;;7399638;19;19948;-71
2023/12/10 05:08:40;;;;;;;6.18;1.50;;;13.10;71.00;;;;;;7395710;19;19927;-71
2023/12/10 05:11:06;;;;;;;3.85;1.73;;;12.90;71.00;;;;;;7398421;19;19926;-70
2023/12/10 05:13:31;;;;;;;5.80;1.50;;;12.80;72.00;;;;;;7395952;19;19921;-71
2023/12/10 05:15:57;;;;;;;4.22;1.58;;;12.70;73.00;;;;;;7400605;19;19975;-71
2023/12/10 05:18:24;;;;;;;3.67;1.83;;;12.60;75.20;;;;;;7395172;19;19923;-71
2023/12/10 05:20:50;;;;;;;3.67;1.75;;;12.50;75.80;;;;;;7397616;19;19918;-71
2023/12/10 05:23:16;;;;;;;4.75;1.77;;;12.50;76.80;;;;;;7395750;19;19933;-71
2023/12/10 05:25:43;;;;;;;4.15;1.83;;;12.40;77.90;;;;;;7400133;19;20015;-71
2023/12/10 05:28:09;;;;;;;;;;;12.40;79.10;;;;;;7397753;19;20337;-72
2023/12/10 05:30:34;;;;;;;4.65;1.23;;;12.40;79.10;;;;;;7400930;19;19920;-71
2023/12/10 05:33:00;;;;;;;4.22;1.80;;;12.40;79.40;;;;;;7400122;19;19954;-71
2023/12/10 05:35:26;;;;;;;3.33;1.67;;;12.50;80.00;;;;;;7399112;19;19918;-71
2023/12/10 05:37:52;;;;;;;4.07;1.83;;;12.40;80.10;;;;;;7397787;19;19944;-71
2023/12/10 05:40:18;;;;;;;4.47;1.40;;;12.40;83.00;;;;;;7397991;19;20266;-71
2023/12/10 05:42:44;;;;;;;4.07;1.65;;;12.30;82.50;;;;;;7395613;19;20257;-71
2023/12/10 05:45:10;;;;;;;4.30;1.83;;;12.50;85.50;;;;;;7398369;19;19935;-71
2023/12/10 05:47:35;;;;;;;4.20;1.70;;;12.50;84.80;;;;;;7398003;19;19918;-72
2023/12/10 05:50:01;;;;;;;4.53;1.67;;;12.40;86.50;;;;;;7404920;19;19929;-71
2023/12/10 05:52:27;;;;;;;5.50;1.90;;;12.40;85.90;;;;;;7400978;19;19918;-71
2023/12/10 05:54:53;;;;;;;3.95;1.70;;;12.50;88.40;;;;;;7406086;19;20329;-71
2023/12/10 05:57:19;;;;;;;4.18;1.60;;;12.40;88.60;;;;;;7402713;19;19939;-71
2023/12/10 05:59:45;;;;;;;5.30;1.70;;;12.60;86.70;;;;;;7404053;19;19919;-71
2023/12/10 06:02:11;;;;;;;4.50;1.83;;;12.50;86.80;;;;;;7399423;19;19954;-70
2023/12/10 06:04:37;;;;;;;4.10;1.90;;;12.50;87.00;;;;;;7406111;19;20362;-71
2023/12/10 06:07:02;;;;;;;5.93;1.85;;;12.40;87.20;;;;;;7399460;19;19922;-71
2023/12/10 06:09:28;;;;;;;3.15;1.40;;;12.30;86.20;;;;;;7401842;19;19918;-71
2023/12/10 06:11:54;;;;;;;3.80;1.52;;;12.30;86.60;;;;;;7400309;19;19949;-71
2023/12/10 06:14:20;;;;;;;6.88;1.40;;;12.30;86.60;;;;;;7401641;19;19926;-70
2023/12/10 06:16:46;;;;;;;6.45;1.50;;;12.30;87.90;;;;;;7402677;19;19982;-71
2023/12/10 06:19:11;;;;;;;2.05;0.80;;;12.70;85.00;;;;;;7402941;19;20013;-71
2023/12/10 06:21:37;;;;;;;1.77;0.77;;;13.00;81.20;;;;;;7402927;19;19914;-71
2023/12/10 06:24:06;;;;;;;2.83;1.08;;;13.40;78.10;;;;;;7403055;19;19935;-71
2023/12/10 06:26:32;;;;;;;2.67;1.00;;;13.50;76.20;;;;;;7403041;19;19922;-71
2023/12/10 06:28:58;;;;;;;3.17;1.23;;;13.40;76.30;;;;;;7404251;19;19918;-71
2023/12/10 06:31:24;;;;;;;5.68;1.92;;;13.20;78.30;;;;;;7404120;19;19934;-71
2023/12/10 06:33:50;;;;;;;4.15;1.55;;;13.20;77.70;;;;;;7401535;19;20015;-72
2023/12/10 06:36:16;;;;;;;2.97;1.08;;;13.10;78.20;;;;;;7404905;19;20256;-70
2023/12/10 06:38:41;;;;;;;2.85;0.93;;;13.30;78.40;;;;;;7401161;19;19918;-71
2023/12/10 06:41:07;;;;;;;3.08;1.38;;;13.30;77.40;;;;;;7401695;19;19918;-71
2023/12/10 06:43:33;;;;;;;2.70;1.20;;;13.20;78.70;;;;;;7406512;19;19918;-71
2023/12/10 06:45:59;;;;;;;2.55;1.20;;;13.20;79.10;;;;;;7403380;19;19959;-71
2023/12/10 06:48:25;;;;;;;2.40;1.10;;;13.00;79.50;;;;;;7404450;19;19914;-72
2023/12/10 06:50:52;;;;;;;3.75;1.30;;;12.90;80.90;;;;;;7404684;19;19907;-70
2023/12/10 06:53:17;;;;;;;2.20;0.90;;;12.80;81.90;;;;;;7402419;19;20252;-72
2023/12/10 06:55:44;;;;;;;4.05;1.17;;;12.80;81.50;;;;;;7405468;19;19930;-70
2023/12/10 06:58:10;;;;;;;4.03;1.30;;;12.80;82.70;;;;;;7398550;19;19925;-70
2023/12/10 07:00:36;;;;;;;3.28;1.35;;;12.80;83.30;;;;;;7405575;19;19914;-71
2023/12/10 07:03:02;;;;;;;2.53;1.38;;;12.80;83.20;;;;;;7400479;19;19918;-71
2023/12/10 07:05:28;;;;;;;3.15;1.15;;;12.80;83.50;;;;;;7403619;19;19943;-71
2023/12/10 07:07:54;;;;;;;1.90;0.73;;;12.80;83.90;;;;;;7381357;19;20661;-71
2023/12/10 07:10:20;;;;;;;1.88;0.80;;;12.80;83.30;;;;;;7402675;19;19937;-72
2023/12/10 07:12:46;;;;;;;1.70;0.93;;;12.80;83.30;;;;;;7402703;19;20393;-71
2023/12/10 07:15:12;;;;;;;2.67;1.13;;;13.00;81.20;;;;;;7403160;19;19923;-71
2023/12/10 07:17:38;;;;;;;3.08;0.93;;;13.20;78.50;;;;;;7403251;19;19941;-72
2023/12/10 07:20:04;;;;;;;2.75;1.10;;;13.40;75.60;;;;;;7400642;19;19919;-71
2023/12/10 07:22:30;;;;;;;2.13;1.00;;;13.50;74.20;;;;;;7402648;19;19907;-71
2023/12/10 07:24:58;;;;;;;2.42;1.17;;;13.50;73.90;;;;;;7404642;19;19915;-71
2023/12/10 07:27:25;;;;;;;2.00;0.93;;;13.60;73.20;;;;;;7402138;19;19918;-72
2023/12/10 07:29:51;;;;;;;2.30;0.80;;;13.60;72.80;;;;;;7402983;19;19919;-71
2023/12/10 07:32:17;;;;;;;3.42;1.00;;;13.70;71.70;;;;;;7399017;19;19963;-71
2023/12/10 07:34:43;;;;;;;2.25;0.85;;;13.80;70.90;;;;;;7400946;19;20290;-70
2023/12/10 07:37:08;;;;;;;4.00;1.02;;;13.80;70.10;;;;;;7399360;19;20386;-71
2023/12/10 07:39:34;;;;;;;3.95;1.13;;;14.00;68.90;;;;;;7379841;19;19939;-71
2023/12/10 07:42:01;;;;;;;2.42;0.95;;;14.00;68.30;;;;;;7402586;19;19919;-71
2023/12/10 07:44:27;;;;;;;3.45;1.05;;;13.90;68.10;;;;;;7400453;19;19965;-70
2023/12/10 07:46:53;;;;;;;3.53;1.35;;;13.90;69.20;;;;;;7401714;19;19914;-72
2023/12/10 07:49:19;;;;;;;3.10;1.52;;;13.70;71.20;;;;;;7402564;19;20336;-71
2023/12/10 07:51:46;;;;;;;4.53;1.73;;;13.60;73.70;;;;;;7401858;19;19947;-72
2023/12/10 07:54:12;;;;;;;3.35;1.00;;;13.50;74.60;;;;;;7402644;19;19923;-71
2023/12/10 07:56:38;;;;;;;3.28;1.45;;;13.60;73.30;;;;;;7405078;19;19938;-71
2023/12/10 07:59:04;;;;;;;2.40;0.80;;;13.90;69.60;;;;;;7399830;19;19926;-71
2023/12/10 08:01:30;;;;;;;1.70;0.70;;;14.20;66.20;;;;;;7402078;19;19918;-71
2023/12/10 08:03:56;;;;;;;1.45;0.60;;;14.60;62.00;;;;;;7402787;19;19918;-72
2023/12/10 08:06:21;;;;;;;1.95;1.00;;;14.80;59.60;;;;;;7400838;19;19927;-72
2023/12/10 08:08:47;;;;;;;2.95;1.55;;;14.90;59.00;;;;;;7398915;19;19950;-72
2023/12/10 08:11:13;;;;;;;2.50;1.05;;;15.50;58.50;;;;;;7401349;19;19931;-71
2023/12/10 08:13:39;;;;;;;2.35;1.00;;;16.30;52.10;;;;;;7401887;19;19919;-71
2023/12/10 08:16:05;;;;;;;2.35;1.20;;;15.80;53.30;;;;;;7398559;19;19994;-72
2023/12/10 08:18:31;;;;;;;2.22;1.35;;;16.60;50.40;;;;;;7400854;19;19935;-72
2023/12/10 08:20:57;;;;;;;2.72;1.63;;;18.10;44.00;;;;;;7400554;19;20259;-72
2023/12/10 08:23:23;;;;;;;2.05;0.90;;;19.10;38.90;;;;;;7399932;19;19918;-72
2023/12/10 08:25:49;;;;;;;4.28;3.05;;;19.90;36.30;;;;;;7403516;19;19952;-72
2023/12/10 08:28:15;;;;;;;5.10;2.58;;;20.70;32.50;;;;;;7399440;19;19915;-74
2023/12/10 08:30:40;;;;;;;3.63;2.50;;;21.20;29.30;;;;;;7402899;19;19919;-73
2023/12/10 08:33:06;;;;;;;3.50;2.38;;;21.70;27.40;;;;;;7401796;19;19922;-71
2023/12/10 08:35:32;;;;;;;3.42;1.70;;;21.80;26.00;;;;;;7402911;19;19915;-72
2023/12/10 08:37:58;;;;;;;2.80;1.98;;;22.10;25.40;;;;;;7402179;19;19997;-72
2023/12/10 08:40:24;;;;;;;3.60;1.90;;;22.00;21.30;;;;;;7399112;19;19927;-72
2023/12/10 08:42:49;;;;;;;3.63;1.88;;;22.10;21.60;;;;;;7403955;19;19958;-72
2023/12/10 08:45:15;;;;;;;3.60;1.80;;;21.20;22.80;;;;;;7401260;19;19935;-72
2023/12/10 08:47:41;;;;;;;2.65;1.60;;;19.80;25.50;;;;;;7400201;19;19919;-72
2023/12/10 08:50:07;;;;;;;3.28;1.70;;;18.80;28.50;;;;;;7401530;19;19922;-72
2023/12/10 08:52:33;;;;;;;2.45;1.13;;;18.40;29.90;;;;;;7402944;19;19914;-73
2023/12/10 08:54:59;;;;;;;2.45;1.55;;;18.20;31.90;;;;;;7400060;19;20462;-73
2023/12/10 08:57:25;;;;;;;3.85;1.58;;;18.00;32.90;;;;;;7398601;19;19919;-72
2023/12/10 08:59:50;;;;;;;2.33;1.20;;;17.80;34.00;;;;;;7401266;19;19933;-73
2023/12/10 09:02:17;;;;;;;2.90;1.50;;;17.60;34.60;;;;;;7398417;19;19941;-71
2023/12/10 09:04:43;;;;;;;2.67;1.25;;;17.30;38.50;;;;;;7401742;19;19918;-72
2023/12/10 09:07:09;;;;;;;2.38;1.10;;;17.00;38.80;;;;;;7400621;19;19930;-74
2023/12/10 09:09:35;;;;;;;3.28;1.33;;;17.00;38.40;;;;;;7399769;19;19963;-71
2023/12/10 09:12:01;;;;;;;2.55;1.20;;;17.20;37.50;;;;;;7400452;19;20016;-72
2023/12/10 09:14:26;;;;;;;2.28;0.98;;;17.40;36.60;;;;;;7400287;19;19934;-72
2023/12/10 09:16:55;;;;;;;2.20;1.42;;;17.40;36.00;;;;;;7399426;19;19927;-72
2023/12/10 09:19:21;;;;;;;2.60;1.20;;;17.90;34.90;;;;;;7399883;19;20008;-72
2023/12/10 09:21:47;;;;;;;2.70;1.45;;;18.00;34.20;;;;;;7407517;19;19926;-70
2023/12/10 09:24:14;;;;;;;2.63;1.88;;;18.70;33.10;;;;;;7404658;19;19949;-71
2023/12/10 09:26:39;;;;;;;;;;;19.10;30.00;;;;;;7407889;19;19936;-72
2023/12/10 09:29:06;;;;;;;2.08;0.80;;;19.40;28.90;;;;;;7404759;19;20418;-72
2023/12/10 09:31:32;;;;;;;4.30;2.17;;;19.20;28.30;;;;;;7406504;19;19918;-72
2023/12/10 09:33:59;;;;;;;3.88;1.65;;;19.20;28.90;;;;;;7406284;19;19918;-71
2023/12/10 09:36:25;;;;;;;2.85;1.65;;;19.00;29.90;;;;;;7405059;19;19922;-71
2023/12/10 09:38:51;;;;;;;3.22;1.80;;;19.00;29.50;;;;;;7403055;19;19922;-72
2023/12/10 09:41:17;;;;;;;2.45;1.80;;;19.20;29.10;;;;;;7405084;19;19922;-72
2023/12/10 09:43:43;;;;;;;2.67;1.65;;;18.90;29.20;;;;;;7406400;19;19918;-72
2023/12/10 09:46:08;;;;;;;4.10;1.90;;;19.20;29.20;;;;;;7399344;19;19914;-71
2023/12/10 09:48:36;;;;;;;3.05;1.85;;;19.40;29.30;;;;;;7401483;19;19915;-71
2023/12/10 09:51:02;;;;;;;2.60;1.05;;;19.60;27.90;;;;;;7405451;19;20414;-73
2023/12/10 09:53:28;;;;;;;2.75;1.60;;;19.70;27.80;;;;;;7401449;19;19926;-73
2023/12/10 09:55:54;;;;;;;3.67;2.17;;;19.50;27.10;;;;;;7406145;19;19923;-72
2023/12/10 09:58:20;;;;;;;4.30;1.73;;;19.90;26.60;;;;;;7402657;19;20338;-72
2023/12/10 10:00:46;;;;;;;5.60;2.92;;;20.20;25.60;;;;;;7407287;19;20365;-72
2023/12/10 10:03:12;;;;;;;4.50;2.35;;;20.30;25.10;;;;;;7404473;19;20339;-72
2023/12/10 10:05:38;;;;;;;3.58;2.03;;;20.20;25.70;;;;;;7405531;19;20378;-73
2023/12/10 10:08:03;;;;;;;5.95;2.10;;;20.40;24.90;;;;;;7403021;19;19971;-72
2023/12/10 10:10:30;;;;;;;4.25;1.77;;;20.10;25.50;;;;;;7404303;19;19919;-72
2023/12/10 10:12:56;;;;;;;3.50;2.05;;;20.40;25.20;;;;;;7404502;19;19933;-71
2023/12/10 10:15:30;;;;;;;2.83;1.60;;;20.40;25.30;;;;;;7404966;19;20748;-71
2023/12/10 10:17:57;;;;;;;4.10;2.67;;;20.50;25.10;;;;;;7392722;19;19925;-71
2023/12/10 10:20:26;;;;;;;3.30;2.25;;;20.40;26.10;;;;;;7392058;19;19921;-73
2023/12/10 10:22:54;;;;;;;4.00;2.30;;;20.70;24.70;;;;;;7400692;19;19922;-73
2023/12/10 10:25:22;;;;;;;4.22;2.22;;;21.00;24.50;;;;;;7405104;19;19914;-73
2023/12/10 10:27:51;;;;;;;3.50;1.95;;;20.80;24.40;;;;;;7404227;19;19914;-72
2023/12/10 10:30:17;;;;;;;4.35;2.30;;;21.00;24.70;;;;;;7388018;19;19927;-73
2023/12/10 10:32:44;;;;;;;3.83;2.53;;;21.40;23.80;;;;;;7396752;19;20557;-74
2023/12/10 10:35:11;;;;;;;4.63;2.15;;;21.50;23.70;;;;;;7395416;19;19915;-73
2023/12/10 10:37:37;;;;;;;5.75;2.08;;;21.50;23.70;;;;;;7395094;19;19946;-73
2023/12/10 10:40:04;;;;;;;4.35;2.53;;;21.60;24.00;;;;;;7404187;19;19919;-73
2023/12/10 10:42:29;;;;;;;3.83;2.25;;;21.70;23.60;;;;;;7400952;19;19947;-73
2023/12/10 10:44:55;;;;;;;5.30;2.58;;;21.80;23.10;;;;;;7401550;19;19922;-72
2023/12/10 10:47:22;;;;;;;3.40;2.33;;;21.70;23.40;;;;;;7402146;19;19935;-72
2023/12/10 10:49:57;;;;;;;3.60;2.72;;;22.00;23.80;;;;;;7404818;19;19955;-72
2023/12/10 10:52:29;;;;;;;3.42;2.67;;;22.60;22.90;;;;;;7403442;19;19941;-73
2023/12/10 10:54:55;;;;;;;;;;;23.00;21.60;;;;;;7408740;19;19923;-73
2023/12/10 10:57:31;;;;;;;3.85;2.47;;;23.50;20.20;;;;;;7402431;19;19922;-73
2023/12/10 10:59:57;;;;;;;5.20;2.42;;;23.30;20.10;;;;;;7400294;19;19918;-72
2023/12/10 11:02:23;;;;;;;3.78;2.55;;;23.40;20.10;;;;;;7394211;19;19927;-73
2023/12/10 11:04:50;;;;;;;3.45;2.25;;;23.50;19.90;;;;;;7401141;19;19932;-73
2023/12/10 11:07:19;;;;;;;3.42;1.88;;;24.20;18.90;;;;;;7398187;19;19918;-73
2023/12/10 11:09:59;;;;;;;4.35;2.60;;;24.00;17.90;;;;;;7396516;19;19927;-72
2023/12/10 11:12:48;;;;;;;4.38;2.90;;;23.90;18.30;;;;;;7401818;19;19919;-72
2023/12/10 11:15:16;;;;;;;3.90;2.50;;;24.40;17.70;;;;;;7392602;19;19933;-72
2023/12/10 11:17:55;;;;;;;4.60;2.65;;;24.70;16.60;;;;;;7397835;19;19914;-73
2023/12/10 11:20:41;;;;;;;4.05;2.45;;;24.60;16.70;;;;;;7398594;19;19915;-73
2023/12/10 11:23:11;;;;;;;4.30;3.78;;;25.30;15.60;;;;;;7398913;19;19914;-74
2023/12/10 11:25:38;;;;;;;4.43;2.80;;;25.50;15.20;;;;;;7398608;19;19918;-72
2023/12/10 11:28:17;;;;;;;4.35;2.90;;;25.90;14.60;;;;;;7391893;19;19919;-74
2023/12/10 11:30:44;;;;;;;4.63;2.83;;;26.40;13.70;;;;;;7375083;19;20390;-73
2023/12/10 11:33:13;;;;;;;5.32;3.17;;;26.30;13.30;;;;;;7393733;19;19923;-73
2023/12/10 11:35:40;;;;;;;4.53;3.03;;;25.70;14.30;;;;;;7400105;19;20327;-73
2023/12/10 11:38:06;;;;;;;4.30;3.17;;;26.30;14.50;;;;;;7397874;19;19931;-73
2023/12/10 11:40:33;;;;;;;3.72;2.88;;;26.90;13.20;;;;;;7402549;19;19922;-72
2023/12/10 11:43:06;;;;;;;5.50;3.05;;;26.00;13.90;;;;;;7400334;19;19931;-74
2023/12/10 11:45:32;;;;;;;4.43;1.90;;;26.90;13.50;;;;;;7400662;19;20425;-73
2023/12/10 11:47:58;;;;;;;5.22;3.33;;;27.00;13.20;;;;;;7401665;19;20245;-73
2023/12/10 11:50:24;;;;;;;5.40;3.55;;;26.30;13.50;;;;;;7400880;19;19910;-72
2023/12/10 11:52:51;;;;;;;4.22;3.17;;;26.90;13.30;;;;;;7401648;19;19918;-73
2023/12/10 11:55:17;;;;;;;4.70;3.15;;;27.40;12.20;;;;;;7400584;19;19927;-73
2023/12/10 11:57:44;;;;;;;4.95;3.17;;;26.80;13.00;;;;;;7402303;19;19930;-74
2023/12/10 12:00:14;;;;;;;3.92;2.78;;;26.30;14.30;;;;;;7399328;19;19973;-74
2023/12/10 12:02:44;;;;;;;4.20;3.65;;;26.70;14.20;;;;;;7400247;19;19918;-74
2023/12/10 12:05:15;;;;;;;5.05;3.72;;;26.60;13.70;;;;;;7398363;19;19915;-74
2023/12/10 12:07:42;;;;;;;6.85;4.30;;;25.30;14.20;;;;;;7402614;19;20260;-74
2023/12/10 12:10:09;;;;;;;6.25;4.15;;;23.80;14.90;;;;;;7402352;19;19931;-73
2023/12/10 12:12:40;;;;;;;6.68;4.30;;;25.00;15.60;;;;;;7403242;19;20012;-74
2023/12/10 12:15:07;;;;;;;5.80;3.90;;;25.50;14.90;;;;;;7401219;19;19915;-74
2023/12/10 12:17:34;;;;;;;7.40;3.60;;;26.30;13.80;;;;;;7401522;19;19919;-73
2023/12/10 12:20:18;;;;;;;6.80;4.65;;;26.40;13.60;;;;;;7401344;19;20001;-73
2023/12/10 12:22:44;;;;;;;8.00;4.22;;;26.80;12.60;;;;;;7401572;19;19925;-73
2023/12/10 12:25:10;;;;;;;7.25;4.20;;;26.90;12.60;;;;;;7399687;19;19918;-72
2023/12/10 12:27:36;;;;;;;;;;;26.50;13.70;;;;;;7403144;19;19918;-73
2023/12/10 12:30:02;;;;;;;8.85;4.53;;;26.20;13.50;;;;;;7400381;19;19933;-73
2023/12/10 12:32:28;;;;;;;9.80;4.15;;;25.80;15.80;;;;;;7400966;19;20337;-72
2023/12/10 12:34:54;;;;;;;9.25;4.55;;;26.70;14.80;;;;;;7402049;19;19919;-73
2023/12/10 12:37:20;;;;;;;7.90;4.15;;;27.00;14.00;;;;;;7401369;19;19924;-73
2023/12/10 12:39:45;;;;;;;10.32;4.47;;;26.90;14.30;;;;;;7401657;19;19930;-73
2023/12/10 12:42:11;;;;;;;11.20;4.25;;;26.20;15.40;;;;;;7398035;19;19932;-74
2023/12/10 12:44:40;;;;;;;9.02;4.38;;;25.70;16.50;;;;;;7401597;19;19946;-73